createdAt,value
2018-11-04T00:07:41.716Z,5.50
2018-11-04T00:17:46.658Z,5.40
2018-11-04T00:27:51.554Z,5.60
2018-11-04T00:37:56.390Z,5.50
2018-11-04T00:48:01.216Z,5.50
2018-11-04T00:58:06.036Z,5.50
2018-11-04T01:08:10.836Z,5.60
2018-11-04T01:18:15.641Z,5.60
2018-11-04T01:28:20.418Z,5.80
2018-11-04T01:38:25.175Z,5.80
2018-11-04T01:48:30.186Z,5.80
2018-11-04T01:58:34.996Z,5.90
2018-11-04T02:08:39.759Z,6.20
2018-11-04T02:18:44.447Z,6.00
2018-11-04T02:28:49.212Z,5.90
2018-11-04T02:38:53.971Z,5.90
2018-11-04T02:48:58.768Z,5.90
2018-11-04T02:59:03.566Z,5.80
2018-11-04T03:09:09.999Z,5.70
2018-11-04T03:19:14.772Z,5.50
2018-11-04T03:29:19.557Z,5.50
2018-11-04T03:39:24.227Z,5.20
2018-11-04T03:49:29.031Z,5.10
2018-11-04T03:59:33.838Z,4.80
2018-11-04T04:09:38.604Z,5.00
2018-11-04T04:19:43.342Z,4.90
2018-11-04T04:29:48.141Z,4.80
2018-11-04T04:39:52.940Z,4.40
2018-11-04T04:49:57.759Z,4.10
2018-11-04T05:00:02.493Z,4.40
2018-11-04T05:10:07.602Z,4.50
2018-11-04T05:20:12.334Z,4.10
2018-11-04T05:30:17.182Z,4.00
2018-11-04T05:40:21.899Z,4.30
2018-11-04T05:50:26.621Z,4.20
2018-11-04T06:00:31.322Z,4.70
2018-11-04T06:10:36.080Z,4.60
2018-11-04T06:20:40.870Z,4.70
2018-11-04T06:30:45.656Z,4.70
2018-11-04T06:40:50.410Z,4.60
2018-11-04T06:50:55.226Z,5.10
2018-11-04T07:00:59.983Z,5.50
2018-11-04T07:11:04.812Z,5.90
2018-11-04T07:21:09.684Z,6.20
2018-11-04T07:31:14.474Z,6.60
2018-11-04T07:41:19.819Z,7.00
2018-11-04T07:51:24.684Z,7.30
2018-11-04T08:01:29.554Z,7.70
2018-11-04T08:11:34.318Z,7.70
2018-11-04T08:21:39.115Z,8.10
2018-11-04T08:31:44.038Z,8.10
2018-11-04T08:41:49.037Z,8.80
2018-11-04T08:51:54.325Z,8.60
2018-11-04T09:01:59.234Z,8.80
2018-11-04T09:12:04.807Z,9.10
2018-11-04T09:22:10.068Z,9.20
2018-11-04T09:32:15.258Z,9.70
2018-11-04T09:42:20.349Z,10.40
2018-11-04T09:52:25.462Z,10.80
2018-11-04T10:02:30.446Z,11.20
2018-11-04T10:12:35.394Z,11.60
2018-11-04T10:22:40.684Z,12.20
2018-11-04T10:32:45.767Z,13.10
2018-11-04T10:42:50.620Z,14.50
2018-11-04T10:52:55.481Z,15.80
2018-11-04T11:03:00.294Z,16.50
2018-11-04T11:13:05.350Z,15.40
2018-11-04T11:23:10.296Z,13.90
2018-11-04T11:33:15.172Z,13.50
2018-11-04T11:43:20.025Z,13.10
2018-11-04T11:53:25.378Z,12.70
2018-11-04T12:03:30.284Z,13.10
2018-11-04T12:13:35.530Z,14.10
2018-11-04T12:23:41.874Z,14.80
2018-11-04T12:33:46.838Z,16.20
2018-11-04T12:43:51.873Z,21.00
2018-11-04T12:53:57.144Z,24.80
2018-11-04T13:04:02.157Z,24.30
2018-11-04T13:14:07.754Z,23.70
2018-11-04T13:24:12.702Z,21.80
2018-11-04T13:34:17.632Z,22.40
2018-11-04T13:44:22.534Z,25.20
2018-11-04T13:54:27.420Z,24.40
2018-11-04T14:04:32.860Z,22.90
2018-11-04T14:14:38.177Z,22.20
2018-11-04T14:24:43.504Z,20.60
2018-11-04T14:34:48.657Z,20.10
2018-11-04T14:44:53.926Z,22.00
2018-11-04T14:54:59.416Z,19.50
2018-11-04T15:05:04.615Z,16.30
2018-11-04T15:15:12.260Z,15.20
2018-11-04T15:25:18.987Z,14.20
2018-11-04T15:35:24.372Z,12.60
2018-11-04T15:45:29.810Z,11.50
2018-11-04T15:55:35.290Z,10.90
2018-11-04T16:05:40.658Z,10.60
2018-11-04T16:15:45.925Z,10.30
2018-11-04T16:25:50.882Z,10.20
2018-11-04T16:35:56.309Z,10.00
2018-11-04T16:46:01.724Z,10.00
2018-11-04T16:56:07.179Z,9.90
2018-11-04T17:06:12.120Z,9.80
2018-11-04T17:16:17.090Z,9.80
2018-11-04T17:26:22.195Z,9.70
2018-11-04T17:36:27.083Z,9.60
2018-11-04T17:46:32.163Z,9.50
2018-11-04T17:56:37.246Z,9.40
2018-11-04T18:06:42.376Z,9.40
2018-11-04T18:16:47.483Z,9.00
2018-11-04T18:26:52.435Z,8.60
2018-11-04T18:36:57.959Z,8.50
2018-11-04T18:47:03.054Z,8.10
2018-11-04T18:57:08.184Z,8.00
2018-11-04T19:07:13.282Z,8.10
2018-11-04T19:17:18.774Z,8.10
2018-11-04T19:27:23.845Z,8.00
2018-11-04T19:37:29.318Z,8.10
2018-11-04T19:47:34.339Z,7.90
2018-11-04T19:57:39.856Z,7.70
2018-11-04T20:07:45.437Z,7.30
2018-11-04T20:17:51.014Z,7.20
2018-11-04T20:27:56.214Z,7.20
2018-11-04T20:38:01.578Z,7.20
2018-11-04T20:48:12.253Z,7.10
2018-11-04T20:58:17.757Z,7.20
2018-11-04T21:08:22.896Z,7.20
2018-11-04T21:18:28.056Z,7.00
2018-11-04T21:28:33.221Z,6.70
2018-11-04T21:38:38.269Z,6.80
2018-11-04T21:48:43.968Z,6.60
2018-11-04T21:58:49.056Z,6.40
2018-11-04T22:08:54.205Z,6.50
2018-11-04T22:18:59.271Z,6.30
2018-11-04T22:29:04.873Z,6.20
2018-11-04T22:39:10.184Z,6.10
2018-11-04T22:49:15.229Z,6.00
2018-11-04T22:59:20.423Z,6.00
2018-11-04T23:09:25.438Z,6.00
2018-11-04T23:19:30.327Z,6.00
2018-11-04T23:29:35.325Z,6.20
2018-11-04T23:39:40.358Z,7.00
2018-11-04T23:49:45.251Z,7.00
2018-11-04T23:59:50.272Z,6.90
